Time;durP1;ratioP1;P1;durP2;ratioP2;P2;SDS_P1;SDS_P2;PMS_P1;PMS_P2;Temp;Humidity;BMP_temperature;BMP_pressure;BME280_temperature;BME280_humidity;BME280_pressure;Samples;Min_cycle;Max_cycle;Signal;HPM_P1;HPM_P2
2023/05/10 00:02:07;;;;;;;7.30;4.20;;;;;;;15.25;44.54;101197.70;107996;1289;21990;-60
2023/05/10 00:04:33;;;;;;;7.50;4.00;;;;;;;15.26;44.44;101196.45;108031;1289;21998;-60
2023/05/10 00:06:59;;;;;;;7.40;4.70;;;;;;;15.28;44.47;101194.47;108015;1289;21997;-60
2023/05/10 00:09:25;;;;;;;8.60;4.10;;;;;;;15.29;44.45;101189.14;108016;1288;21994;-59
2023/05/10 00:11:50;;;;;;;6.50;4.40;;;;;;;15.28;44.58;101190.41;108120;1288;21989;-59
2023/05/10 00:14:17;;;;;;;8.10;4.80;;;;;;;15.27;44.63;101189.53;108122;1288;21992;-59
2023/05/10 00:16:42;;;;;;;6.60;4.20;;;;;;;15.23;44.56;101190.16;108001;1288;21990;-60
2023/05/10 00:19:08;;;;;;;7.40;4.30;;;;;;;15.14;44.46;101188.36;108184;1289;22464;-59
2023/05/10 00:21:34;;;;;;;7.30;4.40;;;;;;;15.09;44.58;101191.29;108049;1288;21997;-61
2023/05/10 00:24:00;;;;;;;7.80;4.50;;;;;;;15.06;44.64;101192.91;108121;1289;21989;-59
2023/05/10 00:26:25;;;;;;;7.80;4.80;;;;;;;15.08;44.75;101195.36;108023;1289;21990;-60
2023/05/10 00:28:51;;;;;;;10.70;4.90;;;;;;;15.14;44.87;101201.09;108162;1288;21987;-59
2023/05/10 00:31:17;;;;;;;7.10;4.60;;;;;;;15.17;45.21;101205.83;108130;1288;22000;-60
2023/05/10 00:33:42;;;;;;;6.70;3.90;;;;;;;15.17;45.32;101205.45;108154;1288;22024;-60
2023/05/10 00:36:08;;;;;;;6.70;3.80;;;;;;;15.14;45.13;101210.29;108196;1288;22106;-61
2023/05/10 00:38:34;;;;;;;7.30;4.30;;;;;;;15.15;45.34;101209.38;108157;1288;21986;-59
2023/05/10 00:41:00;;;;;;;7.50;4.20;;;;;;;15.19;45.23;101207.38;108001;1289;21992;-59
2023/05/10 00:43:25;;;;;;;6.50;4.00;;;;;;;15.23;45.18;101203.06;108007;1289;22005;-58
2023/05/10 00:45:51;;;;;;;10.20;5.00;;;;;;;15.26;45.16;101202.45;108003;1289;21982;-59
2023/05/10 00:48:16;;;;;;;12.90;4.80;;;;;;;15.31;45.26;101199.71;107889;1289;22001;-58
2023/05/10 00:50:42;;;;;;;8.80;4.40;;;;;;;15.41;45.24;101199.02;107922;1289;22811;-59
2023/05/10 00:53:08;;;;;;;10.90;5.10;;;;;;;15.49;45.12;101199.02;108025;1289;21990;-59
2023/05/10 00:55:34;;;;;;;8.50;4.60;;;;;;;15.53;45.09;101192.42;107776;1289;22006;-60
2023/05/10 00:57:59;;;;;;;9.30;4.00;;;;;;;15.54;45.03;101190.96;108031;1289;21992;-60
2023/05/10 01:00:25;;;;;;;8.20;4.50;;;;;;;15.58;45.08;101190.00;108111;1288;21993;-60
2023/05/10 01:02:53;;;;;;;6.60;4.60;;;;;;;15.57;45.08;101187.89;107855;1288;23207;-59
2023/05/10 01:05:19;;;;;;;10.70;4.40;;;;;;;15.55;44.95;101182.61;108047;1287;21952;-59
2023/05/10 01:07:44;;;;;;;9.20;4.60;;;;;;;15.55;44.89;101182.27;108199;1287;21996;-60
2023/05/10 01:10:10;;;;;;;6.20;4.60;;;;;;;15.56;44.89;101177.85;108127;1287;22010;-60
2023/05/10 01:12:38;;;;;;;6.70;4.20;;;;;;;15.55;44.80;101176.80;108149;1288;21997;-61
2023/05/10 01:15:05;;;;;;;6.80;4.30;;;;;;;15.55;44.87;101176.63;107953;1289;21997;-60
2023/05/10 01:17:31;;;;;;;7.90;3.90;;;;;;;15.54;44.86;101175.76;108269;1287;22005;-59
2023/05/10 01:19:57;;;;;;;8.40;4.80;;;;;;;15.52;44.90;101175.95;108023;1287;21996;-59
2023/05/10 01:22:41;;;;;;;5.80;3.40;;;;;;;15.50;44.88;101174.77;108172;1287;22029;-61
2023/05/10 01:25:06;;;;;;;5.60;3.50;;;;;;;15.51;44.89;101173.17;108139;1287;23718;-60
2023/05/10 01:27:44;;;;;;;6.00;3.60;;;;;;;15.51;44.77;101173.16;108129;1287;22006;-59
2023/05/10 01:30:38;;;;;;;11.40;3.70;;;;;;;15.51;44.79;101171.56;108133;1287;21993;-59
2023/05/10 01:33:09;;;;;;;7.20;4.10;;;;;;;15.52;44.89;101171.53;108102;1288;21990;-59
2023/05/10 01:35:42;;;;;;;6.10;3.90;;;;;;;15.53;44.78;101170.83;108112;1288;22029;-59
2023/05/10 01:38:37;;;;;;;4.80;3.20;;;;;;;15.53;44.74;101171.70;108141;1287;22021;-59
2023/05/10 01:41:18;;;;;;;5.00;3.10;;;;;;;15.53;44.83;101173.81;108147;1287;21999;-59
2023/05/10 01:43:53;;;;;;;5.30;2.60;;;;;;;15.52;44.82;101169.77;108008;1288;22000;-59
2023/05/10 01:46:24;;;;;;;5.40;3.10;;;;;;;15.53;44.87;101169.94;108125;1288;21980;-59
2023/05/10 01:48:52;;;;;;;6.00;3.00;;;;;;;15.54;44.88;101166.55;108183;1287;21998;-59
2023/05/10 01:51:21;;;;;;;4.50;3.00;;;;;;;15.55;44.87;101164.95;108151;1288;21991;-60
2023/05/10 01:53:47;;;;;;;6.20;2.90;;;;;;;15.56;44.93;101166.00;108158;1287;21999;-60
2023/05/10 01:56:13;;;;;;;5.20;3.00;;;;;;;15.54;44.90;101165.67;108249;1287;21990;-61
2023/05/10 01:58:39;;;;;;;5.40;3.20;;;;;;;15.52;44.86;101165.89;107989;1288;21993;-60
2023/05/10 02:01:05;;;;;;;5.10;3.00;;;;;;;15.49;44.69;101163.83;108123;1287;21989;-60
2023/05/10 02:03:31;;;;;;;5.40;2.40;;;;;;;15.39;44.54;101167.38;107885;1287;21991;-60
2023/05/10 02:05:56;;;;;;;4.50;2.70;;;;;;;15.31;44.41;101164.00;107798;1288;21991;-60
2023/05/10 02:08:22;;;;;;;4.50;2.50;;;;;;;15.23;44.30;101166.98;107887;1287;21994;-60
2023/05/10 02:10:50;;;;;;;4.30;2.20;;;;;;;15.17;44.36;101169.77;107923;1288;22023;-59
2023/05/10 02:13:16;;;;;;;4.60;2.60;;;;;;;15.13;44.49;101168.05;108261;1287;21992;-59
2023/05/10 02:15:42;;;;;;;6.70;2.60;;;;;;;15.09;44.56;101169.71;108175;1287;21994;-60
2023/05/10 02:18:07;;;;;;;5.30;3.20;;;;;;;15.00;44.60;101171.82;107934;1288;21992;-59
2023/05/10 02:20:33;;;;;;;4.70;3.00;;;;;;;14.90;44.65;101173.95;107833;1287;21999;-59
2023/05/10 02:22:59;;;;;;;5.40;3.00;;;;;;;14.80;44.78;101173.05;107916;1287;21987;-59
2023/05/10 02:25:25;;;;;;;5.20;2.80;;;;;;;14.74;44.95;101172.98;108062;1287;21985;-59
2023/05/10 02:27:51;;;;;;;5.80;2.70;;;;;;;14.66;45.07;101176.45;107942;1288;23685;-60
2023/05/10 02:30:18;;;;;;;5.40;2.80;;;;;;;14.60;45.07;101178.30;108179;1288;22000;-59
2023/05/10 02:32:44;;;;;;;4.50;2.50;;;;;;;14.58;45.12;101176.91;108153;1288;21992;-59
2023/05/10 02:35:09;;;;;;;7.20;2.80;;;;;;;14.58;45.16;101176.73;107829;1288;22459;-59
2023/05/10 02:37:36;;;;;;;6.20;2.80;;;;;;;14.59;45.18;101175.51;108116;1288;22132;-60
2023/05/10 02:40:03;;;;;;;4.70;2.70;;;;;;;14.63;45.24;101174.73;108169;1283;21996;-59
2023/05/10 02:42:29;;;;;;;6.10;2.60;;;;;;;14.69;45.20;101173.77;108236;1287;22021;-59
2023/05/10 02:45:01;;;;;;;6.10;2.40;;;;;;;14.73;45.09;101175.48;108049;1287;22023;-59
2023/05/10 02:47:28;;;;;;;12.50;2.90;;;;;;;14.77;45.16;101170.83;108166;1287;21988;-59
2023/05/10 02:49:54;;;;;;;5.40;2.40;;;;;;;14.83;45.16;101169.30;108229;1283;21989;-60
2023/05/10 02:52:22;;;;;;;4.90;2.80;;;;;;;14.90;45.11;101167.95;107999;1287;21977;-62
2023/05/10 02:54:50;;;;;;;4.40;2.70;;;;;;;14.95;45.02;101167.49;108183;1287;22003;-60
2023/05/10 02:57:19;;;;;;;4.40;2.80;;;;;;;15.01;44.91;101167.20;108164;1287;21994;-60
2023/05/10 02:59:45;;;;;;;5.00;2.90;;;;;;;15.08;44.70;101167.98;108091;1287;21975;-59
2023/05/10 03:02:12;;;;;;;7.20;2.90;;;;;;;15.14;44.71;101170.69;108134;1287;21993;-59
2023/05/10 03:04:38;;;;;;;5.90;2.60;;;;;;;15.19;44.65;101169.52;108049;1287;21993;-59
2023/05/10 03:07:04;;;;;;;6.00;2.10;;;;;;;15.23;44.67;101166.98;108092;1287;21994;-59
2023/05/10 03:09:31;;;;;;;5.50;2.30;;;;;;;15.28;44.53;101164.23;108208;1287;21989;-59
2023/05/10 03:12:01;;;;;;;7.10;2.50;;;;;;;15.35;44.43;101165.89;107998;1287;21981;-59
2023/05/10 03:14:53;;;;;;;5.40;2.40;;;;;;;15.39;44.37;101164.20;106586;1287;1002609;-59
2023/05/10 03:17:29;;;;;;;4.50;2.20;;;;;;;15.42;44.30;101165.91;108135;1287;21993;-59
2023/05/10 03:19:56;;;;;;;5.50;2.40;;;;;;;15.47;44.40;101169.52;108078;1287;21997;-59
2023/05/10 03:22:34;;;;;;;4.10;2.30;;;;;;;15.51;44.46;101170.52;108051;1287;21988;-60
2023/05/10 03:25:00;;;;;;;4.60;2.80;;;;;;;15.51;44.38;101168.92;108125;1287;21997;-59
2023/05/10 03:27:26;;;;;;;4.60;2.50;;;;;;;15.51;44.53;101172.81;107765;1287;21987;-59
2023/05/10 03:29:53;;;;;;;6.50;2.50;;;;;;;15.54;44.46;101177.52;108067;1287;21991;-59
2023/05/10 03:32:19;;;;;;;6.20;2.20;;;;;;;15.59;44.59;101181.30;108143;1287;21981;-60
2023/05/10 03:34:44;;;;;;;11.30;3.30;;;;;;;15.64;44.60;101178.73;107902;1287;23732;-60
2023/05/10 03:37:10;;;;;;;7.80;2.40;;;;;;;15.69;44.55;101178.27;108022;1287;21989;-60
2023/05/10 03:39:36;;;;;;;10.40;2.90;;;;;;;15.73;44.46;101180.30;107285;1287;1002613;-60
2023/05/10 03:42:01;;;;;;;9.00;2.80;;;;;;;15.78;44.41;101182.16;108068;1287;23051;-61
2023/05/10 03:44:27;;;;;;;6.70;2.70;;;;;;;15.84;44.48;101185.42;108097;1287;21999;-60
2023/05/10 03:46:53;;;;;;;19.70;4.20;;;;;;;15.87;44.16;101182.91;108033;1287;22077;-59
2023/05/10 03:49:18;;;;;;;9.60;2.60;;;;;;;15.89;44.29;101180.73;108145;1287;22152;-59
2023/05/10 03:51:44;;;;;;;11.40;3.00;;;;;;;15.92;44.39;101180.13;108055;1287;21998;-59
2023/05/10 03:54:09;;;;;;;6.00;2.00;;;;;;;15.96;44.19;101186.23;108097;1287;21988;-59
2023/05/10 03:56:35;;;;;;;6.20;2.20;;;;;;;15.98;44.06;101190.08;108129;1287;21996;-60
2023/05/10 03:59:01;;;;;;;9.80;3.00;;;;;;;16.02;44.05;101189.81;108086;1287;22021;-60
2023/05/10 04:01:27;;;;;;;4.80;2.40;;;;;;;16.06;44.06;101189.20;108080;1287;21989;-61
2023/05/10 04:03:52;;;;;;;10.60;3.10;;;;;;;16.11;43.89;101190.15;108050;1287;22022;-60
2023/05/10 04:06:18;;;;;;;5.60;2.30;;;;;;;16.15;43.96;101189.00;108065;1287;23294;-62
2023/05/10 04:08:44;;;;;;;3.80;2.20;;;;;;;16.17;43.98;101193.20;108070;1283;21998;-60
2023/05/10 04:11:11;;;;;;;8.70;2.60;;;;;;;16.18;43.88;101197.06;108141;1287;23729;-60
2023/05/10 04:13:37;;;;;;;4.90;2.10;;;;;;;16.21;43.98;101193.64;108103;1287;21997;-60
2023/05/10 04:16:04;;;;;;;4.90;2.50;;;;;;;16.25;43.90;101194.80;108130;1287;22029;-61
2023/05/10 04:18:30;;;;;;;3.40;2.20;;;;;;;16.29;43.89;101197.03;108084;1287;23196;-60
2023/05/10 04:20:55;;;;;;;5.30;2.30;;;;;;;16.30;43.71;101197.15;108053;1287;21996;-61
2023/05/10 04:23:21;;;;;;;5.40;2.30;;;;;;;16.35;43.83;101196.69;108074;1287;22000;-60
2023/05/10 04:25:47;;;;;;;12.10;2.60;;;;;;;16.43;43.80;101195.09;108087;1287;21989;-61
2023/05/10 04:28:13;;;;;;;4.20;2.40;;;;;;;16.52;43.87;101190.45;108045;1287;21989;-60
2023/05/10 04:30:38;;;;;;;5.80;2.00;;;;;;;16.59;43.72;101189.21;108084;1287;21996;-60
2023/05/10 04:33:04;;;;;;;3.70;2.30;;;;;;;16.66;43.85;101190.81;108095;1287;21992;-60
2023/05/10 04:35:30;;;;;;;10.30;2.40;;;;;;;16.77;43.90;101191.95;108079;1284;21990;-60
2023/05/10 04:37:55;;;;;;;4.90;2.50;;;;;;;16.88;43.67;101193.46;107334;1287;1002405;-60
2023/05/10 04:40:21;;;;;;;4.70;2.20;;;;;;;16.97;43.34;101192.91;108064;1287;21989;-61
2023/05/10 04:42:46;;;;;;;21.80;13.60;;;;;;;17.04;43.29;101198.04;108085;1287;21996;-60
2023/05/10 04:45:14;;;;;;;20.60;14.20;;;;;;;17.13;43.25;101199.92;108067;1287;21991;-60
2023/05/10 04:47:40;;;;;;;11.50;8.30;;;;;;;17.24;43.08;101202.13;108147;1287;21986;-61
2023/05/10 04:50:07;;;;;;;6.30;3.70;;;;;;;17.33;42.93;101203.31;108176;1284;21991;-60
2023/05/10 04:52:33;;;;;;;9.20;2.70;;;;;;;17.44;42.95;101197.17;108193;1287;22000;-60
2023/05/10 04:54:59;;;;;;;4.30;2.50;;;;;;;17.53;42.81;101195.66;108129;1287;21987;-60
2023/05/10 04:57:24;;;;;;;5.00;2.50;;;;;;;17.60;42.58;101196.71;108100;1287;21991;-60
2023/05/10 04:59:50;;;;;;;10.90;4.60;;;;;;;17.63;42.27;101196.27;108077;1288;21991;-60
2023/05/10 05:02:16;;;;;;;10.10;3.80;;;;;;;17.65;42.39;101192.66;108149;1288;21996;-60
2023/05/10 05:04:42;;;;;;;8.60;3.60;;;;;;;17.71;42.32;101194.43;108188;1287;21989;-59
2023/05/10 05:07:08;;;;;;;12.70;5.50;;;;;;;17.76;42.10;101197.65;108131;1287;21994;-61
2023/05/10 05:09:34;;;;;;;10.70;4.10;;;;;;;17.78;41.92;101199.91;108081;1287;22002;-59
2023/05/10 05:11:59;;;;;;;9.30;5.60;;;;;;;17.79;41.97;101201.50;108055;1287;22006;-59
2023/05/10 05:14:25;;;;;;;18.90;9.10;;;;;;;17.80;42.03;101198.63;108109;1287;22021;-60
2023/05/10 05:16:52;;;;;;;24.50;9.30;;;;;;;17.82;42.04;101201.56;108150;1287;22033;-61
2023/05/10 05:19:18;;;;;;;20.70;8.80;;;;;;;17.89;42.31;101200.84;108241;1287;21990;-61
2023/05/10 05:21:43;;;;;;;15.20;5.80;;;;;;;18.01;42.53;101198.02;108073;1287;21990;-61
2023/05/10 05:24:10;;;;;;;11.10;4.60;;;;;;;18.17;42.52;101198.44;108154;1287;21998;-59
2023/05/10 05:26:36;;;;;;;20.10;9.20;;;;;;;18.30;42.23;101194.64;108108;1288;21992;-60
2023/05/10 05:29:02;;;;;;;19.40;12.10;;;;;;;18.40;41.74;101199.12;108101;1287;21990;-62
2023/05/10 05:31:28;;;;;;;9.20;5.20;;;;;;;18.49;41.32;101200.10;108136;1287;24086;-61
2023/05/10 05:33:54;;;;;;;19.70;13.50;;;;;;;18.55;41.09;101203.27;108187;1287;22021;-59
2023/05/10 05:36:20;;;;;;;11.50;6.60;;;;;;;18.64;40.93;101198.19;108074;1287;22030;-59
2023/05/10 05:38:46;;;;;;;10.60;7.50;;;;;;;18.75;40.55;101199.05;108183;1287;23608;-61
2023/05/10 05:41:11;;;;;;;9.80;7.10;;;;;;;18.88;40.43;101200.78;108156;1287;22083;-59
2023/05/10 05:43:37;;;;;;;16.50;11.40;;;;;;;19.00;40.46;101198.08;108154;1287;22378;-61
2023/05/10 05:46:03;;;;;;;9.80;4.90;;;;;;;19.14;40.55;101197.59;108135;1287;22012;-59
2023/05/10 05:48:30;;;;;;;11.90;7.50;;;;;;;19.26;40.12;101199.11;108118;1287;22022;-59
2023/05/10 05:50:59;;;;;;;9.40;4.00;;;;;;;19.37;39.81;101199.11;108194;1287;22005;-61
2023/05/10 05:53:24;;;;;;;10.50;3.50;;;;;;;19.42;39.65;101200.17;108113;1287;21985;-60
2023/05/10 05:55:54;;;;;;;6.90;4.00;;;;;;;19.43;39.51;101198.14;108018;1284;21997;-60
2023/05/10 05:58:20;;;;;;;7.80;3.70;;;;;;;19.46;39.36;101197.17;107952;1287;21997;-60
2023/05/10 06:00:46;;;;;;;5.60;3.50;;;;;;;19.51;39.29;101197.52;108076;1287;21991;-60
2023/05/10 06:03:12;;;;;;;6.20;3.70;;;;;;;19.56;39.47;101198.96;108125;1287;21989;-60
2023/05/10 06:05:37;;;;;;;10.20;5.50;;;;;;;19.62;39.52;101199.65;108106;1287;22030;-61
2023/05/10 06:08:04;;;;;;;7.60;4.50;;;;;;;19.70;39.66;101199.34;108047;1287;22031;-60
2023/05/10 06:10:30;;;;;;;6.50;3.50;;;;;;;19.77;39.28;101197.98;108108;1287;21986;-60
2023/05/10 06:12:56;;;;;;;4.90;2.60;;;;;;;19.82;39.28;101198.88;108104;1287;21989;-60
2023/05/10 06:15:22;;;;;;;4.20;2.00;;;;;;;19.91;39.24;101198.58;108127;1287;21989;-60
2023/05/10 06:17:49;;;;;;;6.40;3.70;;;;;;;19.96;39.03;101198.20;108038;1287;22454;-60
2023/05/10 06:20:15;;;;;;;2.60;1.80;;;;;;;20.04;39.21;101194.70;108025;1287;22460;-60
2023/05/10 06:22:41;;;;;;;7.00;2.10;;;;;;;20.14;39.04;101197.49;107389;1284;1002477;-60
2023/05/10 06:25:08;;;;;;;3.30;2.00;;;;;;;20.24;38.95;101198.18;108140;1283;22024;-60
2023/05/10 06:27:34;;;;;;;6.50;3.30;;;;;;;20.30;38.75;101200.27;108183;1287;21992;-60
2023/05/10 06:30:02;;;;;;;5.50;2.00;;;;;;;20.39;38.98;101198.64;108096;1283;22267;-61
2023/05/10 06:32:28;;;;;;;5.00;3.40;;;;;;;20.47;38.57;101196.71;108112;1284;21990;-61
2023/05/10 06:34:54;;;;;;;4.50;2.00;;;;;;;20.52;38.51;101196.52;108106;1287;21989;-60
2023/05/10 06:37:20;;;;;;;3.20;2.00;;;;;;;20.57;38.47;101200.23;108081;1287;22004;-63
2023/05/10 06:39:46;;;;;;;3.50;2.30;;;;;;;20.65;38.42;101199.58;108118;1287;22003;-61
2023/05/10 06:42:11;;;;;;;6.10;2.20;;;;;;;20.72;38.29;101196.61;108085;1287;21998;-61
2023/05/10 06:44:37;;;;;;;4.10;2.10;;;;;;;20.78;38.19;101197.26;108072;1287;22080;-61
2023/05/10 06:47:02;;;;;;;4.70;2.60;;;;;;;20.84;38.28;101192.38;108032;1287;21986;-61
2023/05/10 06:49:28;;;;;;;5.00;2.30;;;;;;;20.91;38.33;101192.80;108047;1287;22022;-60
2023/05/10 06:51:55;;;;;;;3.40;2.10;;;;;;;21.01;38.27;101195.05;108046;1287;21996;-62
2023/05/10 06:54:21;;;;;;;4.20;1.90;;;;;;;21.13;38.15;101196.31;108089;1287;21987;-61
2023/05/10 06:56:46;;;;;;;3.00;1.60;;;;;;;21.24;38.05;101196.92;108176;1287;22276;-61
2023/05/10 06:59:13;;;;;;;3.20;2.10;;;;;;;21.36;38.03;101196.75;107341;1287;1003106;-61
2023/05/10 07:01:39;;;;;;;3.80;1.70;;;;;;;21.48;37.96;101193.17;108052;1287;22252;-61
2023/05/10 07:04:05;;;;;;;5.30;1.80;;;;;;;21.61;37.94;101191.88;108007;1287;21997;-61
2023/05/10 07:06:30;;;;;;;3.20;1.70;;;;;;;21.72;37.63;101195.86;108029;1287;21988;-61
2023/05/10 07:08:56;;;;;;;5.10;2.00;;;;;;;21.79;37.61;101197.67;108056;1287;21986;-61
2023/05/10 07:11:22;;;;;;;3.00;1.80;;;;;;;21.89;37.65;101199.35;108065;1287;21985;-62
2023/05/10 07:13:50;;;;;;;4.00;2.00;;;;;;;21.99;37.56;101201.94;108078;1287;21993;-61
2023/05/10 07:16:16;;;;;;;6.30;2.00;;;;;;;22.08;37.26;101197.80;108016;1287;22178;-62
2023/05/10 07:18:41;;;;;;;5.80;2.20;;;;;;;22.14;36.99;101195.72;108052;1287;22458;-61
2023/05/10 07:21:07;;;;;;;4.10;1.80;;;;;;;22.15;36.73;101197.27;108133;1287;22179;-61
2023/05/10 07:23:33;;;;;;;5.10;2.00;;;;;;;22.18;36.71;101195.69;107375;1287;1002450;-61
2023/05/10 07:25:59;;;;;;;10.30;2.70;;;;;;;22.26;36.94;101197.98;108195;1287;22047;-62
2023/05/10 07:28:24;;;;;;;7.50;2.10;;;;;;;22.40;36.52;101198.77;107333;1287;1004200;-60
2023/05/10 07:30:50;;;;;;;2.80;1.70;;;;;;;22.52;36.41;101197.64;108132;1287;21996;-60
2023/05/10 07:33:15;;;;;;;5.30;2.20;;;;;;;22.66;36.40;101196.06;108048;1283;21996;-61
2023/05/10 07:35:41;;;;;;;4.00;2.50;;;;;;;22.79;35.88;101191.45;108041;1287;21998;-61
2023/05/10 07:38:07;;;;;;;6.70;2.10;;;;;;;22.93;35.84;101191.15;108040;1287;21994;-61
2023/05/10 07:40:33;;;;;;;6.50;2.40;;;;;;;23.06;35.25;101191.91;108033;1287;21990;-62
2023/05/10 07:43:02;;;;;;;7.90;2.30;;;;;;;23.11;35.25;101192.00;108083;1287;22681;-60
2023/05/10 07:45:28;;;;;;;6.00;1.80;;;;;;;23.22;34.70;101190.54;108105;1281;21989;-60
2023/05/10 07:47:54;;;;;;;4.40;1.30;;;;;;;23.27;33.64;101190.82;108063;1287;22001;-62
2023/05/10 07:50:20;;;;;;;3.70;1.80;;;;;;;23.32;33.22;101187.89;108070;1283;22416;-61
2023/05/10 07:52:47;;;;;;;3.20;1.70;;;;;;;23.41;33.05;101185.08;108037;1287;23754;-60
2023/05/10 07:55:13;;;;;;;7.50;3.80;;;;;;;23.54;32.30;101180.81;108097;1287;21986;-60
2023/05/10 07:57:39;;;;;;;4.70;2.50;;;;;;;23.58;31.47;101177.52;108063;1287;22527;-61
2023/05/10 08:00:06;;;;;;;4.20;2.20;;;;;;;23.71;31.84;101178.84;108026;1286;22151;-60
2023/05/10 08:02:35;;;;;;;3.50;1.60;;;;;;;23.99;32.25;101174.09;108196;1287;22025;-61
2023/05/10 08:05:01;;;;;;;10.20;1.90;;;;;;;24.29;31.56;101170.95;108137;1287;22008;-61
2023/05/10 08:07:26;;;;;;;4.60;1.60;;;;;;;24.59;31.28;101170.30;108105;1283;22059;-61
2023/05/10 08:09:52;;;;;;;2.80;1.60;;;;;;;24.99;31.00;101171.17;108143;1287;22024;-61
2023/05/10 08:12:18;;;;;;;4.20;1.90;;;;;;;25.30;30.48;101168.21;108043;1284;22002;-61
2023/05/10 08:14:43;;;;;;;5.20;1.40;;;;;;;25.51;30.85;101164.63;107935;1288;21990;-62
2023/05/10 08:17:09;;;;;;;3.70;1.70;;;;;;;25.71;30.66;101164.12;108175;1287;21987;-63
2023/05/10 08:19:35;;;;;;;4.30;1.80;;;;;;;25.81;30.17;101161.87;108108;1283;21990;-61
2023/05/10 08:22:00;;;;;;;4.90;1.60;;;;;;;25.78;30.52;101162.58;108044;1287;21995;-61
2023/05/10 08:24:26;;;;;;;3.00;1.80;;;;;;;25.86;31.19;101161.17;108122;1287;21999;-61
2023/05/10 08:26:52;;;;;;;4.70;1.60;;;;;;;25.96;30.77;101152.45;108100;1283;21986;-61
2023/05/10 08:29:18;;;;;;;3.40;1.70;;;;;;;26.04;30.73;101151.05;108069;1287;23699;-61
2023/05/10 08:31:43;;;;;;;3.90;2.10;;;;;;;26.09;30.92;101152.45;108132;1287;21995;-61
2023/05/10 08:34:09;;;;;;;2.90;1.60;;;;;;;26.13;30.79;101151.51;108063;1287;22008;-60
2023/05/10 08:36:35;;;;;;;6.50;1.60;;;;;;;26.18;30.56;101147.79;108131;1287;22027;-61
2023/05/10 08:39:01;;;;;;;4.70;1.90;;;;;;;26.27;30.13;101147.38;108097;1287;21979;-61
2023/05/10 08:41:27;;;;;;;3.90;2.10;;;;;;;26.51;29.68;101149.94;108156;1281;22842;-61
2023/05/10 08:43:53;;;;;;;3.20;1.80;;;;;;;26.93;30.43;101143.34;107932;1287;22030;-61
2023/05/10 08:46:20;;;;;;;4.70;1.90;;;;;;;27.36;30.12;101140.14;108201;1287;21994;-61
2023/05/10 08:48:47;;;;;;;6.00;1.80;;;;;;;27.79;29.64;101136.24;108152;1287;21986;-62
2023/05/10 08:51:20;;;;;;;4.80;1.70;;;;;;;28.29;30.56;101134.52;108145;1287;21995;-61
2023/05/10 08:53:46;;;;;;;5.20;1.80;;;;;;;28.87;30.83;101135.20;107994;1287;146487;-63
2023/05/10 08:56:12;;;;;;;3.70;1.60;;;;;;;29.39;29.83;101128.27;107848;1288;23628;-62
2023/05/10 08:58:38;;;;;;;2.10;1.30;;;;;;;29.69;28.57;101129.46;108078;1287;21997;-61
2023/05/10 09:01:04;;;;;;;6.60;1.90;;;;;;;29.85;27.94;101128.73;108193;1287;21997;-62
2023/05/10 09:03:30;;;;;;;4.30;2.60;;;;;;;29.60;26.99;101127.86;108194;1287;22024;-61
2023/05/10 09:05:56;;;;;;;5.40;2.30;;;;;;;28.94;27.38;101131.23;108126;1287;21984;-61
2023/05/10 09:08:25;;;;;;;3.50;1.60;;;;;;;28.67;28.19;101133.13;108142;1287;21986;-63
2023/05/10 09:10:51;;;;;;;3.20;2.10;;;;;;;28.50;27.63;101127.16;108142;1287;21984;-61
2023/05/10 09:13:17;;;;;;;4.10;1.90;;;;;;;28.48;28.16;101128.04;108107;1287;21989;-61
2023/05/10 09:15:43;;;;;;;3.60;1.40;;;;;;;28.78;28.42;101128.09;107877;1288;21987;-61
2023/05/10 09:18:09;;;;;;;3.60;1.60;;;;;;;29.18;28.04;101127.92;108148;1287;21994;-61
2023/05/10 09:20:35;;;;;;;4.90;1.80;;;;;;;29.35;26.86;101125.35;108148;1287;21987;-63
2023/05/10 09:23:00;;;;;;;5.90;1.70;;;;;;;29.22;26.01;101120.19;108198;1287;21989;-62
2023/05/10 09:25:26;;;;;;;3.80;1.60;;;;;;;28.92;26.70;101120.52;108114;1287;21997;-61
2023/05/10 09:27:52;;;;;;;5.40;1.80;;;;;;;28.99;27.25;101119.85;107924;1287;22447;-60
2023/05/10 09:30:25;;;;;;;4.90;1.50;;;;;;;29.04;27.38;101121.80;107867;1287;22026;-60
2023/05/10 09:32:51;;;;;;;7.60;1.80;;;;;;;29.00;26.85;101120.81;108107;1287;21989;-60
2023/05/10 09:35:19;;;;;;;4.30;1.60;;;;;;;28.70;26.08;101119.50;107937;1287;21990;-59
2023/05/10 09:37:47;;;;;;;5.00;1.80;;;;;;;28.52;26.74;101115.29;107926;1287;21986;-60
2023/05/10 09:40:17;;;;;;;9.80;1.50;;;;;;;28.82;27.74;101117.52;108109;1287;22174;-60
2023/05/10 09:42:50;;;;;;;3.60;1.70;;;;;;;29.39;27.85;101114.34;108080;1287;21979;-61
2023/05/10 09:45:16;;;;;;;4.40;1.40;;;;;;;30.10;27.86;101110.91;108055;1287;22482;-62
2023/05/10 09:47:41;;;;;;;4.20;2.20;;;;;;;30.88;28.10;101110.35;108059;1287;21983;-60
2023/05/10 09:50:07;;;;;;;3.60;1.70;;;;;;;31.52;28.25;101107.35;108046;1287;21991;-62
2023/05/10 09:52:47;;;;;;;4.50;2.10;;;;;;;32.12;27.95;101103.50;108240;1287;21984;-60
2023/05/10 09:55:12;;;;;;;4.10;2.00;;;;;;;32.58;27.58;101102.73;108087;1287;22154;-60
2023/05/10 09:57:38;;;;;;;4.50;1.70;;;;;;;32.77;26.46;101102.98;108065;1287;21998;-62
2023/05/10 10:00:05;;;;;;;4.60;1.80;;;;;;;32.82;25.45;101100.66;107318;1287;1002255;-60
2023/05/10 10:02:31;;;;;;;2.40;1.70;;;;;;;32.76;26.19;101102.83;108194;1287;22166;-60
2023/05/10 10:04:56;;;;;;;2.80;1.50;;;;;;;32.63;26.32;101105.30;108019;1287;21997;-61
2023/05/10 10:07:23;;;;;;;3.50;1.60;;;;;;;32.44;26.36;101106.83;108142;1283;21999;-62
2023/05/10 10:09:49;;;;;;;3.00;1.60;;;;;;;32.17;26.32;101109.61;108216;1287;22006;-62
2023/05/10 10:12:14;;;;;;;5.40;1.70;;;;;;;31.82;26.38;101113.35;108099;1287;23640;-61
2023/05/10 10:14:40;;;;;;;3.10;1.50;;;;;;;31.53;26.44;101117.75;107883;1287;21984;-61
2023/05/10 10:17:06;;;;;;;4.80;1.90;;;;;;;31.18;26.37;101119.55;107854;1287;21982;-62
2023/05/10 10:19:35;;;;;;;6.10;1.90;;;;;;;30.82;26.42;101122.64;107907;1287;21999;-60
2023/05/10 10:22:00;;;;;;;3.10;1.80;;;;;;;30.42;26.51;101127.67;108237;1287;22265;-61
2023/05/10 10:24:26;;;;;;;4.90;1.50;;;;;;;30.04;26.40;101127.52;108081;1287;21962;-62
2023/05/10 10:26:52;;;;;;;3.40;1.80;;;;;;;29.62;25.73;101135.83;108041;1284;22006;-62
2023/05/10 10:29:34;;;;;;;3.40;1.70;;;;;;;29.02;26.26;101145.93;107870;1287;21991;-62
2023/05/10 10:32:18;;;;;;;5.70;2.10;;;;;;;28.38;25.61;101149.71;107802;1287;22041;-62
2023/05/10 10:34:44;;;;;;;7.30;2.00;;;;;;;27.34;25.74;101154.48;108061;1287;22249;-63
2023/05/10 10:37:10;;;;;;;5.80;1.80;;;;;;;26.35;26.28;101161.03;107891;1287;21989;-62
2023/05/10 10:39:36;;;;;;;3.30;1.60;;;;;;;25.60;26.82;101161.58;107751;1288;21991;-59
2023/05/10 10:42:03;;;;;;;3.10;1.40;;;;;;;24.97;26.99;101160.73;108080;1287;22040;-61
2023/05/10 10:44:33;;;;;;;3.50;1.60;;;;;;;24.42;27.23;101162.88;108146;1287;21967;-63
2023/05/10 10:47:24;;;;;;;13.30;2.30;;;;;;;23.88;27.62;101165.00;108266;1287;23877;-64
2023/05/10 10:50:00;;;;;;;7.60;1.70;;;;;;;23.54;28.42;101164.33;107506;1287;1002928;-64
2023/05/10 10:52:29;;;;;;;8.60;2.00;;;;;;;23.18;28.76;101171.02;108531;1287;23145;-60
2023/05/10 10:55:03;;;;;;;6.70;2.00;;;;;;;22.80;28.94;101172.79;108145;1287;22021;-59
2023/05/10 10:57:42;;;;;;;6.60;2.00;;;;;;;22.49;29.45;101173.63;108150;1287;21991;-59
2023/05/10 11:00:36;;;;;;;4.30;1.80;;;;;;;22.31;29.55;101174.48;108125;1287;21999;-59
2023/05/10 11:03:17;;;;;;;6.20;1.40;;;;;;;22.02;29.98;101172.84;108071;1288;21987;-59
2023/05/10 11:05:53;;;;;;;7.10;1.80;;;;;;;21.91;30.40;101171.03;108082;1288;22003;-60
2023/05/10 11:08:28;;;;;;;3.80;1.60;;;;;;;22.03;30.63;101171.77;107867;1288;21994;-60
2023/05/10 11:11:00;;;;;;;5.00;1.60;;;;;;;22.19;30.67;101171.33;108133;1283;21993;-60
2023/05/10 11:13:50;;;;;;;6.20;3.50;;;;;;;22.39;30.36;101169.11;108150;1283;21992;-58
2023/05/10 11:16:20;;;;;;;3.70;2.10;;;;;;;22.48;30.52;101170.66;107974;1287;21990;-60